sensor_id;sensor_type;location;lat;lon;timestamp;temperature;humidity
33927;DHT22;20485;50.992;5.550;2023-02-24T07:52:34;3.00;99.90
33927;DHT22;20485;50.992;5.550;2023-02-24T07:55:01;3.10;99.90
33927;DHT22;20485;50.992;5.550;2023-02-24T07:57:27;3.10;99.90
33927;DHT22;20485;50.992;5.550;2023-02-24T07:59:54;3.20;99.90
33927;DHT22;20485;50.992;5.550;2023-02-24T08:02:20;3.20;99.90
33927;DHT22;20485;50.992;5.550;2023-02-24T08:04:48;3.30;99.90
33927;DHT22;20485;50.992;5.550;2023-02-24T08:07:19;3.40;99.90
33927;DHT22;20485;50.992;5.550;2023-02-24T08:09:55;3.40;99.90
33927;DHT22;20485;50.992;5.550;2023-02-24T08:12:50;3.50;99.90
33927;DHT22;20485;50.992;5.550;2023-02-24T08:15:24;3.60;99.90
33927;DHT22;20485;50.992;5.550;2023-02-24T08:17:55;3.70;99.90
33927;DHT22;20485;50.992;5.550;2023-02-24T08:20:27;3.70;99.90
33927;DHT22;20485;50.992;5.550;2023-02-24T08:22:55;3.80;99.90
33927;DHT22;20485;50.992;5.550;2023-02-24T08:25:26;3.80;99.90
33927;DHT22;20485;50.992;5.550;2023-02-24T08:28:04;4.30;99.90
33927;DHT22;20485;50.992;5.550;2023-02-24T08:30:32;3.90;99.90
33927;DHT22;20485;50.992;5.550;2023-02-24T08:33:06;3.90;99.90
33927;DHT22;20485;50.992;5.550;2023-02-24T08:35:34;4.00;99.90
33927;DHT22;20485;50.992;5.550;2023-02-24T08:38:10;4.10;99.90
33927;DHT22;20485;50.992;5.550;2023-02-24T08:40:42;4.10;99.90
33927;DHT22;20485;50.992;5.550;2023-02-24T08:43:25;4.20;99.90
33927;DHT22;20485;50.992;5.550;2023-02-24T08:48:36;4.30;99.90
33927;DHT22;20485;50.992;5.550;2023-02-24T08:53:37;4.50;99.90
33927;DHT22;20485;50.992;5.550;2023-02-24T08:56:06;4.60;99.90
33927;DHT22;20485;50.992;5.550;2023-02-24T08:58:44;4.70;99.90
33927;DHT22;20485;50.992;5.550;2023-02-24T09:01:19;4.80;99.90
33927;DHT22;20485;50.992;5.550;2023-02-24T09:03:50;4.80;99.90
33927;DHT22;20485;50.992;5.550;2023-02-24T09:06:21;4.90;99.90
33927;DHT22;20485;50.992;5.550;2023-02-24T09:08:53;4.80;99.90
33927;DHT22;20485;50.992;5.550;2023-02-24T09:11:40;4.90;99.90
33927;DHT22;20485;50.992;5.550;2023-02-24T09:14:13;4.90;99.90
33927;DHT22;20485;50.992;5.550;2023-02-24T09:16:45;4.90;99.90
33927;DHT22;20485;50.992;5.550;2023-02-24T09:19:44;5.00;99.90
33927;DHT22;20485;50.992;5.550;2023-02-24T09:22:20;5.10;99.90
33927;DHT22;20485;50.992;5.550;2023-02-24T09:25:10;5.20;99.90
33927;DHT22;20485;50.992;5.550;2023-02-24T09:27:53;5.20;99.90
33927;DHT22;20485;50.992;5.550;2023-02-24T09:30:34;5.30;99.90
33927;DHT22;20485;50.992;5.550;2023-02-24T09:33:17;5.30;99.90
33927;DHT22;20485;50.992;5.550;2023-02-24T09:36:00;5.30;99.90
33927;DHT22;20485;50.992;5.550;2023-02-24T09:38:45;5.30;99.90
33927;DHT22;20485;50.992;5.550;2023-02-24T09:41:41;5.40;99.90
33927;DHT22;20485;50.992;5.550;2023-02-24T09:44:43;5.50;99.90
33927;DHT22;20485;50.992;5.550;2023-02-24T09:47:43;5.60;99.90
33927;DHT22;20485;50.992;5.550;2023-02-24T09:50:29;5.70;99.90
33927;DHT22;20485;50.992;5.550;2023-02-24T09:53:22;5.80;99.90
33927;DHT22;20485;50.992;5.550;2023-02-24T09:56:26;5.90;99.90
33927;DHT22;20485;50.992;5.550;2023-02-24T09:59:11;6.00;99.90
33927;DHT22;20485;50.992;5.550;2023-02-24T10:02:25;6.10;99.90
33927;DHT22;20485;50.992;5.550;2023-02-24T10:07:50;6.20;99.90
33927;DHT22;20485;50.992;5.550;2023-02-24T10:10:24;6.30;99.90
33927;DHT22;20485;50.992;5.550;2023-02-24T10:15:29;6.10;99.90
33927;DHT22;20485;50.992;5.550;2023-02-24T10:24:41;5.90;99.90
33927;DHT22;20485;50.992;5.550;2023-02-24T10:30:14;5.50;99.90
33927;DHT22;20485;50.992;5.550;2023-02-24T11:24:50;5.90;99.90
33927;DHT22;20485;50.992;5.550;2023-02-24T11:27:22;5.90;99.90
33927;DHT22;20485;50.992;5.550;2023-02-24T11:41:06;5.90;99.90
33927;DHT22;20485;50.992;5.550;2023-02-24T11:43:35;6.10;99.90
33927;DHT22;20485;50.992;5.550;2023-02-24T11:46:11;6.20;99.90
33927;DHT22;20485;50.992;5.550;2023-02-24T11:48:54;6.10;99.90
33927;DHT22;20485;50.992;5.550;2023-02-24T11:51:33;6.20;99.90
33927;DHT22;20485;50.992;5.550;2023-02-24T11:54:12;6.20;99.90
33927;DHT22;20485;50.992;5.550;2023-02-24T11:56:44;6.20;99.90
33927;DHT22;20485;50.992;5.550;2023-02-24T12:01:56;6.10;99.90
33927;DHT22;20485;50.992;5.550;2023-02-24T12:04:37;6.10;99.90
33927;DHT22;20485;50.992;5.550;2023-02-24T12:07:31;6.10;99.90
33927;DHT22;20485;50.992;5.550;2023-02-24T12:12:46;6.10;99.90
33927;DHT22;20485;50.992;5.550;2023-02-24T12:15:26;6.20;99.90
33927;DHT22;20485;50.992;5.550;2023-02-24T12:18:13;6.30;99.90
33927;DHT22;20485;50.992;5.550;2023-02-24T12:21:03;6.40;99.90
33927;DHT22;20485;50.992;5.550;2023-02-24T12:26:26;6.50;99.90
33927;DHT22;20485;50.992;5.550;2023-02-24T12:37:41;6.50;99.90
33927;DHT22;20485;50.992;5.550;2023-02-24T12:40:43;6.40;99.90
33927;DHT22;20485;50.992;5.550;2023-02-24T12:49:09;6.60;99.90
33927;DHT22;20485;50.992;5.550;2023-02-24T12:54:34;6.60;99.90
33927;DHT22;20485;50.992;5.550;2023-02-24T13:00:16;6.50;99.90
33927;DHT22;20485;50.992;5.550;2023-02-24T13:05:48;6.60;99.90
33927;DHT22;20485;50.992;5.550;2023-02-24T13:14:20;6.50;99.90
33927;DHT22;20485;50.992;5.550;2023-02-24T13:17:13;6.60;99.90
33927;DHT22;20485;50.992;5.550;2023-02-24T13:22:55;6.50;99.90
33927;DHT22;20485;50.992;5.550;2023-02-24T13:25:30;6.50;99.90
33927;DHT22;20485;50.992;5.550;2023-02-24T13:34:40;6.50;99.90
33927;DHT22;20485;50.992;5.550;2023-02-24T13:40:00;6.50;99.90
33927;DHT22;20485;50.992;5.550;2023-02-24T21:08:26;4.20;99.90
33927;DHT22;20485;50.992;5.550;2023-02-24T21:11:03;4.20;99.90
33927;DHT22;20485;50.992;5.550;2023-02-24T21:13:58;4.20;99.90
33927;DHT22;20485;50.992;5.550;2023-02-24T21:16:32;4.10;99.90
33927;DHT22;20485;50.992;5.550;2023-02-24T21:19:13;4.10;99.90
33927;DHT22;20485;50.992;5.550;2023-02-24T21:22:01;4.00;99.90
33927;DHT22;20485;50.992;5.550;2023-02-24T21:24:44;6.10;99.90
33927;DHT22;20485;50.992;5.550;2023-02-24T21:27:32;4.90;99.90
33927;DHT22;20485;50.992;5.550;2023-02-24T21:33:48;4.10;99.90
33927;DHT22;20485;50.992;5.550;2023-02-24T21:36:20;4.10;99.90
33927;DHT22;20485;50.992;5.550;2023-02-24T21:38:52;4.00;99.90
33927;DHT22;20485;50.992;5.550;2023-02-24T21:41:32;5.20;99.90
33927;DHT22;20485;50.992;5.550;2023-02-24T21:44:14;3.90;99.90
33927;DHT22;20485;50.992;5.550;2023-02-24T21:46:47;5.40;99.90
33927;DHT22;20485;50.992;5.550;2023-02-24T21:49:29;3.80;99.90
33927;DHT22;20485;50.992;5.550;2023-02-24T21:52:07;3.70;99.90
33927;DHT22;20485;50.992;5.550;2023-02-24T21:54:40;3.70;99.90
33927;DHT22;20485;50.992;5.550;2023-02-24T21:57:40;3.60;99.90
33927;DHT22;20485;50.992;5.550;2023-02-24T22:00:27;3.60;99.90
33927;DHT22;20485;50.992;5.550;2023-02-24T22:03:13;3.50;99.90
33927;DHT22;20485;50.992;5.550;2023-02-24T22:05:45;3.50;99.90
33927;DHT22;20485;50.992;5.550;2023-02-24T22:08:14;3.50;99.90
33927;DHT22;20485;50.992;5.550;2023-02-24T22:10:40;3.60;99.90
33927;DHT22;20485;50.992;5.550;2023-02-24T22:13:06;3.50;99.90
33927;DHT22;20485;50.992;5.550;2023-02-24T22:15:31;3.50;99.90
33927;DHT22;20485;50.992;5.550;2023-02-24T22:17:59;3.50;99.90
33927;DHT22;20485;50.992;5.550;2023-02-24T22:20:25;3.50;99.90
33927;DHT22;20485;50.992;5.550;2023-02-24T22:22:54;3.40;99.90
33927;DHT22;20485;50.992;5.550;2023-02-24T22:25:19;3.40;99.90
33927;DHT22;20485;50.992;5.550;2023-02-24T22:27:45;3.40;99.90
33927;DHT22;20485;50.992;5.550;2023-02-24T22:30:11;3.40;99.90
33927;DHT22;20485;50.992;5.550;2023-02-24T22:32:43;3.30;99.90
33927;DHT22;20485;50.992;5.550;2023-02-24T22:35:09;3.30;99.90
33927;DHT22;20485;50.992;5.550;2023-02-24T22:37:37;3.30;99.90
33927;DHT22;20485;50.992;5.550;2023-02-24T22:40:04;3.20;99.90
33927;DHT22;20485;50.992;5.550;2023-02-24T22:42:31;3.20;99.90
33927;DHT22;20485;50.992;5.550;2023-02-24T22:44:56;3.20;99.90
33927;DHT22;20485;50.992;5.550;2023-02-24T22:47:28;3.10;99.90
33927;DHT22;20485;50.992;5.550;2023-02-24T23:16:29;3.20;99.90
33927;DHT22;20485;50.992;5.550;2023-02-24T23:18:58;3.30;99.90
33927;DHT22;20485;50.992;5.550;2023-02-24T23:21:32;3.30;99.90
33927;DHT22;20485;50.992;5.550;2023-02-24T23:24:11;3.30;99.90
33927;DHT22;20485;50.992;5.550;2023-02-24T23:26:48;3.40;99.90
33927;DHT22;20485;50.992;5.550;2023-02-24T23:29:17;3.40;99.90
33927;DHT22;20485;50.992;5.550;2023-02-24T23:31:46;3.40;99.90
33927;DHT22;20485;50.992;5.550;2023-02-24T23:34:14;3.40;99.90
33927;DHT22;20485;50.992;5.550;2023-02-24T23:36:42;3.50;99.90
33927;DHT22;20485;50.992;5.550;2023-02-24T23:39:12;3.50;99.90
33927;DHT22;20485;50.992;5.550;2023-02-24T23:41:44;3.50;99.90
33927;DHT22;20485;50.992;5.550;2023-02-24T23:44:15;3.50;99.90
33927;DHT22;20485;50.992;5.550;2023-02-24T23:46:41;3.50;99.90
33927;DHT22;20485;50.992;5.550;2023-02-24T23:49:12;3.50;99.90
33927;DHT22;20485;50.992;5.550;2023-02-24T23:51:39;3.40;99.90
33927;DHT22;20485;50.992;5.550;2023-02-24T23:54:05;3.40;99.90
33927;DHT22;20485;50.992;5.550;2023-02-24T23:56:33;3.40;99.90
33927;DHT22;20485;50.992;5.550;2023-02-24T23:58:59;3.40;99.90
